createdAt,value
2022-09-10T00:01:13.118Z,100041.47
2022-09-10T00:04:16.324Z,100041.41
2022-09-10T00:07:18.802Z,100036.22
2022-09-10T00:10:20.952Z,100036.94
2022-09-10T00:13:22.702Z,100033.53
2022-09-10T00:16:25.778Z,100035.56
2022-09-10T00:19:28.862Z,100025.94
2022-09-10T00:22:30.506Z,100029.28
2022-09-10T00:25:32.603Z,100040.75
2022-09-10T00:28:34.542Z,100042.22
2022-09-10T00:31:37.574Z,100029.03
2022-09-10T00:34:39.902Z,100016.59
2022-09-10T00:37:41.727Z,100012.00
2022-09-10T00:40:43.658Z,100026.47
2022-09-10T00:43:52.142Z,100046.91
2022-09-10T00:46:55.845Z,100038.75
2022-09-10T00:50:16.265Z,100036.44
2022-09-10T00:53:23.463Z,100038.88
2022-09-10T00:56:25.094Z,100035.22
2022-09-10T00:59:27.251Z,100021.19
2022-09-10T01:02:29.492Z,100010.72
2022-09-10T01:05:31.971Z,100006.28
2022-09-10T01:08:33.748Z,100003.75
2022-09-10T01:11:38.368Z,100005.50
2022-09-10T01:14:39.901Z,100014.56
2022-09-10T01:17:47.779Z,100011.84
2022-09-10T01:21:01.025Z,100012.81
2022-09-10T01:24:29.757Z,100012.00
2022-09-10T01:27:37.147Z,100007.63
2022-09-10T01:30:45.605Z,100009.47
2022-09-10T01:34:02.122Z,100010.50
2022-09-10T01:37:10.571Z,100009.72
2022-09-10T01:40:14.277Z,99997.44
2022-09-10T01:43:16.188Z,99979.81
2022-09-10T01:46:26.607Z,99969.34
2022-09-10T01:49:45.740Z,99966.75
2022-09-10T01:52:59.444Z,99959.72
2022-09-10T01:56:03.998Z,99961.50
2022-09-10T01:59:28.238Z,99963.28
2022-09-10T02:02:41.832Z,99955.31
2022-09-10T02:05:46.937Z,99950.06
2022-09-10T02:08:52.820Z,99951.94
2022-09-10T02:11:56.271Z,99948.41
2022-09-10T02:14:58.511Z,99958.97
2022-09-10T02:18:01.706Z,99952.84
2022-09-10T02:21:03.582Z,99946.78
2022-09-10T02:24:10.034Z,99938.88
2022-09-10T02:27:13.107Z,99937.19
2022-09-10T02:30:16.140Z,99931.94
2022-09-10T02:33:18.530Z,99931.09
2022-09-10T02:36:20.731Z,99927.53
2022-09-10T02:39:22.374Z,99928.44
2022-09-10T02:42:25.454Z,99930.16
2022-09-10T02:45:27.580Z,99924.00
2022-09-10T02:48:31.238Z,99914.44
2022-09-10T02:51:33.523Z,99908.00
2022-09-10T02:54:35.246Z,99897.59
2022-09-10T02:57:37.030Z,99893.22
2022-09-10T03:00:39.049Z,99901.16
2022-09-10T03:03:41.738Z,99903.03
2022-09-10T03:06:49.515Z,99905.66
2022-09-10T03:09:51.549Z,99914.53
2022-09-10T03:12:54.411Z,99923.34
2022-09-10T03:15:56.919Z,99918.13
2022-09-10T03:18:58.887Z,99907.53
2022-09-10T03:22:00.726Z,99910.22
2022-09-10T03:25:02.580Z,99906.72
2022-09-10T03:28:04.345Z,99905.75
2022-09-10T03:31:06.148Z,99904.84
2022-09-10T03:34:08.875Z,99909.16
2022-09-10T03:37:10.561Z,99906.59
2022-09-10T03:40:12.509Z,99903.94
2022-09-10T03:43:14.278Z,99908.38
2022-09-10T03:46:16.253Z,99906.62
2022-09-10T03:49:17.997Z,99919.78
2022-09-10T03:52:22.989Z,99912.81
2022-09-10T03:55:24.956Z,99912.78
2022-09-10T03:58:26.829Z,99915.41
2022-09-10T04:01:28.667Z,99912.78
2022-09-10T04:04:31.970Z,99924.22
2022-09-10T04:07:33.599Z,99923.34
2022-09-10T04:10:35.689Z,99925.03
2022-09-10T04:13:37.292Z,99921.47
2022-09-10T04:16:38.951Z,99932.91
2022-09-10T04:19:40.841Z,99928.34
2022-09-10T04:22:42.441Z,99942.38
2022-09-10T04:25:44.479Z,99953.84
2022-09-10T04:28:46.227Z,99954.81
2022-09-10T04:31:48.280Z,99958.25
2022-09-10T04:34:49.869Z,99957.47
2022-09-10T04:37:51.497Z,99960.22
2022-09-10T04:40:53.293Z,99956.69
2022-09-10T04:43:55.336Z,99944.38
2022-09-10T04:46:56.911Z,99945.22
2022-09-10T04:49:58.956Z,99956.66
2022-09-10T04:53:01.254Z,99957.44
2022-09-10T04:56:03.470Z,99972.34
2022-09-10T04:59:05.297Z,99967.03
2022-09-10T05:02:09.268Z,99987.38
2022-09-10T05:05:10.966Z,99994.47
2022-09-10T05:08:13.182Z,99986.44
2022-09-10T05:11:14.899Z,99992.59
2022-09-10T05:14:16.840Z,99993.50
2022-09-10T05:17:18.411Z,99984.72
2022-09-10T05:20:20.529Z,99965.09
2022-09-10T05:23:22.248Z,99966.19
2022-09-10T05:26:24.884Z,99971.44
2022-09-10T05:29:27.559Z,99972.25
2022-09-10T05:32:29.636Z,99962.34
2022-09-10T05:35:32.403Z,99948.94
2022-09-10T05:38:38.137Z,99956.88
2022-09-10T05:41:43.448Z,99968.16
2022-09-10T05:44:45.398Z,99959.25
2022-09-10T05:47:47.456Z,99948.19
2022-09-10T05:50:49.310Z,99957.81
2022-09-10T05:53:51.036Z,99959.59
2022-09-10T05:56:52.635Z,99944.41
2022-09-10T05:59:54.500Z,99947.03
2022-09-10T06:02:57.372Z,99952.47
2022-09-10T06:05:59.387Z,99955.06
2022-09-10T06:09:00.967Z,99954.72
2022-09-10T06:12:02.856Z,99950.53
2022-09-10T06:15:04.840Z,99960.09
2022-09-10T06:18:06.930Z,99954.03
2022-09-10T06:21:19.476Z,99970.72
2022-09-10T06:24:21.187Z,99969.34
2022-09-10T06:27:26.695Z,99973.19
2022-09-10T06:30:28.376Z,99977.13
2022-09-10T06:33:30.684Z,99978.13
2022-09-10T06:39:53.767Z,99989.53
2022-09-10T06:42:55.621Z,99989.31
2022-09-10T06:45:57.331Z,99986.81
2022-09-10T06:49:01.649Z,99983.41
2022-09-10T06:52:03.912Z,99981.06
2022-09-10T06:55:06.216Z,99995.94
2022-09-10T06:58:08.027Z,99988.81
2022-09-10T07:01:12.323Z,99995.75
2022-09-10T07:04:14.396Z,99988.34
2022-09-10T07:07:16.133Z,99989.69
2022-09-10T07:10:17.950Z,99994.28
2022-09-10T07:13:19.884Z,100004.41
2022-09-10T07:16:23.594Z,99996.97
2022-09-10T07:19:25.514Z,99993.75
2022-09-10T07:22:27.303Z,99990.34
2022-09-10T07:25:29.052Z,99991.44
2022-09-10T07:28:32.238Z,99994.13
2022-09-10T07:31:35.665Z,99993.87
2022-09-10T07:34:38.049Z,100001.94
2022-09-10T07:37:39.715Z,99995.19
2022-09-10T07:40:41.777Z,100010.28
2022-09-10T07:43:44.372Z,100007.22
2022-09-10T07:46:46.613Z,100005.38
2022-09-10T07:49:48.234Z,100006.06
2022-09-10T07:52:49.929Z,100010.94
2022-09-10T07:55:59.039Z,100015.97
2022-09-10T07:59:02.783Z,100019.41
2022-09-10T08:02:06.494Z,100010.59
2022-09-10T08:05:10.524Z,100016.69
2022-09-10T08:08:13.462Z,100018.78
2022-09-10T08:11:17.847Z,100013.94
2022-09-10T08:14:19.552Z,100019.31
2022-09-10T08:17:21.134Z,100021.62
2022-09-10T08:20:25.249Z,100012.81
2022-09-10T08:23:27.519Z,100020.81
2022-09-10T08:26:29.418Z,100020.69
2022-09-10T08:29:31.253Z,100031.72
2022-09-10T08:32:36.260Z,100029.91
2022-09-10T08:35:37.901Z,100028.72
2022-09-10T08:38:40.636Z,100026.03
2022-09-10T08:41:53.829Z,100023.66
2022-09-10T08:45:01.277Z,100029.41
2022-09-10T08:48:19.465Z,100033.44
2022-09-10T08:51:28.050Z,100043.53
2022-09-10T08:54:46.444Z,100048.91
2022-09-10T08:58:03.318Z,100049.16
2022-09-10T09:01:07.191Z,100045.31
2022-09-10T09:04:47.830Z,100048.56
2022-09-10T09:07:51.231Z,100040.81
2022-09-10T09:11:07.891Z,100036.59
2022-09-10T09:14:15.856Z,100030.34
2022-09-10T09:17:30.521Z,100039.84
2022-09-10T09:20:45.691Z,100030.84
2022-09-10T09:24:14.164Z,100030.06
2022-09-10T09:27:20.174Z,100028.81
2022-09-10T09:30:37.381Z,100028.16
2022-09-10T09:33:40.894Z,100035.72
2022-09-10T09:36:49.270Z,100040.81
2022-09-10T09:40:07.123Z,100041.19
2022-09-10T09:43:40.882Z,100034.09
2022-09-10T09:46:42.917Z,100029.75
2022-09-10T09:49:45.280Z,100038.53
2022-09-10T09:52:47.733Z,100039.94
2022-09-10T09:55:55.069Z,100040.75
2022-09-10T09:59:11.867Z,100039.59
2022-09-10T10:02:25.074Z,100041.06
2022-09-10T10:05:26.838Z,100037.97
2022-09-10T10:08:32.475Z,100041.34
2022-09-10T10:11:45.922Z,100038.06
2022-09-10T10:14:48.304Z,100038.13
2022-09-10T10:17:50.506Z,100026.78
2022-09-10T10:21:13.847Z,100026.03
2022-09-10T10:24:33.305Z,100025.06
2022-09-10T10:27:41.953Z,100021.69
2022-09-10T10:30:44.747Z,100018.69
2022-09-10T10:33:58.778Z,100016.37
2022-09-10T10:37:31.962Z,100018.72
2022-09-10T10:40:43.426Z,100018.84
2022-09-10T10:44:22.690Z,100006.16
2022-09-10T10:47:47.002Z,100008.62
2022-09-10T10:51:02.703Z,100010.53
2022-09-10T10:54:24.090Z,100013.00
2022-09-10T10:57:44.566Z,100006.87
2022-09-10T11:00:57.383Z,100003.75
2022-09-10T11:04:29.853Z,99999.47
2022-09-10T11:07:37.190Z,99992.16
2022-09-10T11:11:11.462Z,99996.13
2022-09-10T11:14:23.251Z,99998.09
2022-09-10T11:17:29.023Z,99993.16
2022-09-10T11:20:56.354Z,99988.56
2022-09-10T11:24:06.908Z,99987.03
2022-09-10T11:27:26.477Z,99987.28
2022-09-10T11:30:29.301Z,99979.97
2022-09-10T11:33:35.707Z,99979.41
2022-09-10T11:37:03.560Z,99975.81
2022-09-10T11:40:12.706Z,99977.56
2022-09-10T11:43:26.211Z,99968.19
2022-09-10T11:50:07.081Z,99977.75
2022-09-10T11:53:14.054Z,99975.19
2022-09-10T11:56:15.519Z,99976.78
2022-09-10T11:59:37.707Z,99978.53
2022-09-10T12:02:39.229Z,99976.47
2022-09-10T12:05:59.301Z,99975.63
2022-09-10T12:09:23.718Z,99973.31
2022-09-10T12:12:43.430Z,99956.13
2022-09-10T12:15:56.266Z,99962.91
2022-09-10T12:18:59.167Z,99965.31
2022-09-10T12:22:05.505Z,99960.47
2022-09-10T12:25:18.475Z,99966.25
2022-09-10T12:28:45.811Z,99961.94
2022-09-10T12:32:09.807Z,99956.69
2022-09-10T12:35:42.933Z,99955.78
2022-09-10T12:38:44.468Z,99951.75
2022-09-10T12:41:45.952Z,99958.44
2022-09-10T12:44:47.679Z,99946.44
2022-09-10T12:47:50.832Z,99953.03
2022-09-10T12:50:56.896Z,99950.81
2022-09-10T12:54:04.541Z,99949.88
2022-09-10T12:57:27.926Z,99941.31
2022-09-10T13:00:42.359Z,99922.94
2022-09-10T13:03:56.197Z,99934.72
2022-09-10T13:07:32.730Z,99930.22
2022-09-10T13:10:34.806Z,99913.97
2022-09-10T13:13:48.693Z,99923.22
2022-09-10T13:16:50.354Z,99920.62
2022-09-10T13:19:53.946Z,99914.59
2022-09-10T13:23:19.537Z,99913.59
2022-09-10T13:26:31.195Z,99899.94
2022-09-10T13:29:41.690Z,99898.31
2022-09-10T13:32:55.277Z,99897.44
2022-09-10T13:36:20.263Z,99896.63
2022-09-10T13:39:27.470Z,99893.78
2022-09-10T13:42:49.260Z,99893.38
2022-09-10T13:46:00.540Z,99897.88
2022-09-10T13:49:20.076Z,99904.44
2022-09-10T13:52:29.403Z,99903.59
2022-09-10T13:55:32.143Z,99901.97
2022-09-10T13:58:39.775Z,99899.75
2022-09-10T14:01:54.881Z,99902.94
2022-09-10T14:04:56.735Z,99891.94
2022-09-10T14:08:02.502Z,99900.91
2022-09-10T14:11:13.004Z,99902.41
2022-09-10T14:14:19.283Z,99899.69
2022-09-10T14:17:25.850Z,99906.72
2022-09-10T14:20:34.101Z,99910.63
2022-09-10T14:23:35.835Z,99912.38
2022-09-10T14:26:37.976Z,99899.44
2022-09-10T14:30:02.885Z,99896.19
2022-09-10T14:33:41.893Z,99902.78
2022-09-10T14:36:43.495Z,99892.44
2022-09-10T14:39:45.492Z,99906.91
2022-09-10T14:42:49.026Z,99901.87
2022-09-10T14:45:50.859Z,99898.31
2022-09-10T14:48:58.311Z,99895.97
2022-09-10T14:52:01.670Z,99889.28
2022-09-10T14:55:03.390Z,99898.91
2022-09-10T14:58:05.173Z,99894.34
2022-09-10T15:01:07.019Z,99888.88
2022-09-10T15:04:17.509Z,99895.09
2022-09-10T15:07:19.755Z,99897.13
2022-09-10T15:10:21.513Z,99899.78
2022-09-10T15:13:23.562Z,99906.31
2022-09-10T15:16:25.985Z,99900.69
2022-09-10T15:19:27.994Z,99908.28
2022-09-10T15:22:31.895Z,99917.63
2022-09-10T15:25:46.554Z,99912.69
2022-09-10T15:28:48.249Z,99923.28
2022-09-10T15:31:51.456Z,99919.47
2022-09-10T15:34:53.038Z,99933.53
2022-09-10T15:37:54.619Z,99932.47
2022-09-10T15:41:07.624Z,99935.44
2022-09-10T15:44:09.219Z,99935.53
2022-09-10T15:47:10.800Z,99941.06
2022-09-10T15:50:14.632Z,99939.69
2022-09-10T15:53:16.226Z,99945.25
2022-09-10T15:56:19.571Z,99949.09
2022-09-10T15:59:23.301Z,99946.69
2022-09-10T16:02:25.186Z,99953.91
2022-09-10T16:05:26.824Z,99957.56
2022-09-10T16:08:29.005Z,99965.63
2022-09-10T16:11:33.112Z,99966.50
2022-09-10T16:14:34.883Z,99968.34
2022-09-10T16:17:36.631Z,99963.84
2022-09-10T16:20:38.209Z,99975.72
2022-09-10T16:23:41.512Z,99975.06
2022-09-10T16:26:45.128Z,99973.50
2022-09-10T16:29:47.407Z,99971.25
2022-09-10T16:32:49.122Z,99974.22
2022-09-10T16:35:50.790Z,99973.56
2022-09-10T16:38:57.820Z,99973.81
2022-09-10T16:41:59.702Z,99973.97
2022-09-10T16:45:01.378Z,99975.25
2022-09-10T16:48:04.461Z,99979.91
2022-09-10T16:51:07.607Z,99975.63
2022-09-10T16:54:10.365Z,99979.28
2022-09-10T16:57:12.227Z,99975.81
2022-09-10T17:00:14.094Z,99976.88
2022-09-10T17:03:15.912Z,99985.03
2022-09-10T17:06:25.561Z,99989.53
2022-09-10T17:09:27.518Z,99992.56
2022-09-10T17:12:29.694Z,99993.59
2022-09-10T17:15:31.309Z,99994.69
2022-09-10T17:18:32.893Z,100002.81
2022-09-10T17:21:36.039Z,100009.16
2022-09-10T17:24:37.619Z,100010.94
2022-09-10T17:27:40.609Z,100014.59
2022-09-10T17:30:43.232Z,100013.84
2022-09-10T17:33:45.194Z,100004.22
2022-09-10T17:36:47.600Z,100013.16
2022-09-10T17:39:51.736Z,100019.59
2022-09-10T17:42:53.735Z,100024.03
2022-09-10T17:45:56.013Z,100028.62
2022-09-10T17:49:02.491Z,100027.78
2022-09-10T17:52:05.209Z,100031.16
2022-09-10T17:55:07.221Z,100037.69
2022-09-10T17:58:11.185Z,100042.06
2022-09-10T18:01:23.369Z,100042.22
2022-09-10T18:04:27.787Z,100046.69
2022-09-10T18:07:30.255Z,100040.56
2022-09-10T18:10:33.695Z,100052.88
2022-09-10T18:13:36.750Z,100050.25
2022-09-10T18:16:38.424Z,100057.50
2022-09-10T18:19:40.381Z,100054.81
2022-09-10T18:22:42.861Z,100066.41
2022-09-10T18:25:49.546Z,100068.28
2022-09-10T18:28:57.365Z,100080.59
2022-09-10T18:32:04.080Z,100083.41
2022-09-10T18:35:06.786Z,100084.37
2022-09-10T18:38:08.699Z,100087.97
2022-09-10T18:41:27.164Z,100097.66
2022-09-10T18:44:33.567Z,100087.16
2022-09-10T18:47:44.496Z,100095.13
2022-09-10T18:50:47.570Z,100101.31
2022-09-10T18:53:53.576Z,100095.19
2022-09-10T18:56:56.064Z,100089.97
2022-09-10T18:59:58.247Z,100091.72
2022-09-10T19:03:00.437Z,100091.72
2022-09-10T19:06:08.751Z,100091.69
2022-09-10T19:09:13.298Z,100084.63
2022-09-10T19:12:19.130Z,100086.34
2022-09-10T19:15:21.153Z,100074.91
2022-09-10T19:18:23.467Z,100079.34
2022-09-10T19:21:27.562Z,100082.88
2022-09-10T19:24:53.385Z,100081.13
2022-09-10T19:27:53.246Z,100078.53
2022-09-10T19:30:55.330Z,100076.84
2022-09-10T19:34:00.588Z,100070.72
2022-09-10T19:37:02.611Z,100076.88
2022-09-10T19:40:04.954Z,100072.50
2022-09-10T19:43:07.121Z,100074.28
2022-09-10T19:46:11.055Z,100076.94
2022-09-10T19:49:13.577Z,100071.59
2022-09-10T19:52:18.267Z,100073.38
2022-09-10T19:55:21.541Z,100076.00
2022-09-10T19:58:23.171Z,100076.09
2022-09-10T20:01:27.770Z,100068.19
2022-09-10T20:04:30.103Z,100071.69
2022-09-10T20:07:32.028Z,100078.72
2022-09-10T20:10:34.082Z,100073.47
2022-09-10T20:13:36.766Z,100071.72
2022-09-10T20:16:42.367Z,100072.56
2022-09-10T20:19:44.263Z,100077.87
2022-09-10T20:22:47.106Z,100080.50
2022-09-10T20:25:48.830Z,100089.28
2022-09-10T20:28:54.102Z,100084.06
2022-09-10T20:31:55.734Z,100089.34
2022-09-10T20:34:57.629Z,100093.72
2022-09-10T20:37:59.721Z,100096.34
2022-09-10T20:41:01.375Z,100099.84
2022-09-10T20:44:03.034Z,100096.31
2022-09-10T20:47:05.049Z,100099.81
2022-09-10T20:50:06.832Z,100100.69
2022-09-10T20:53:08.864Z,100109.44
2022-09-10T20:56:14.199Z,100107.72
2022-09-10T20:59:17.377Z,100112.09
2022-09-10T21:02:19.097Z,100116.47
2022-09-10T21:05:21.919Z,100115.56
2022-09-10T21:08:25.181Z,100114.69
2022-09-10T21:11:29.481Z,100116.44
2022-09-10T21:14:31.647Z,100115.59
2022-09-10T21:17:33.199Z,100115.66
2022-09-10T21:20:36.059Z,100120.00
2022-09-10T21:23:46.311Z,100124.28
2022-09-10T21:26:49.184Z,100117.25
2022-09-10T21:29:51.222Z,100121.63
2022-09-10T21:32:52.833Z,100120.72
2022-09-10T21:36:09.843Z,100126.75
2022-09-10T21:39:16.281Z,100127.59
2022-09-10T21:42:18.187Z,100118.87
2022-09-10T21:45:23.294Z,100117.06
2022-09-10T21:48:27.390Z,100119.69
2022-09-10T21:51:29.646Z,100115.34
2022-09-10T21:54:31.684Z,100112.72
2022-09-10T21:57:33.363Z,100118.00
2022-09-10T22:00:36.474Z,100118.81
2022-09-10T22:03:39.323Z,100117.97
2022-09-10T22:06:41.691Z,100116.25
2022-09-10T22:09:43.656Z,100128.47
2022-09-10T22:12:46.664Z,100131.06
2022-09-10T22:15:51.341Z,100126.69
2022-09-10T22:18:56.226Z,100123.25
2022-09-10T22:21:57.995Z,100132.88
2022-09-10T22:24:59.812Z,100143.41
2022-09-10T22:28:01.643Z,100140.78
2022-09-10T22:31:07.146Z,100145.16
2022-09-10T22:34:14.894Z,100161.78
2022-09-10T22:37:17.259Z,100144.25
2022-09-10T22:40:18.928Z,100149.47
2022-09-10T22:43:20.701Z,100160.06
2022-09-10T22:46:23.693Z,100154.78
2022-09-10T22:49:26.101Z,100160.09
2022-09-10T22:52:32.661Z,100156.56
2022-09-10T22:55:34.843Z,100162.66
2022-09-10T22:58:37.378Z,100162.66
2022-09-10T23:01:39.445Z,100161.78
2022-09-10T23:04:42.744Z,100166.13
2022-09-10T23:07:44.420Z,100167.84
2022-09-10T23:10:46.294Z,100173.09
2022-09-10T23:13:50.654Z,100180.94
2022-09-10T23:16:52.760Z,100171.28
2022-09-10T23:19:54.647Z,100173.06
2022-09-10T23:22:56.212Z,100174.81
2022-09-10T23:26:09.423Z,100167.75
2022-09-10T23:29:12.683Z,100170.38
2022-09-10T23:32:14.278Z,100176.41
2022-09-10T23:35:16.114Z,100168.50
2022-09-10T23:38:18.431Z,100171.06
2022-09-10T23:41:20.504Z,100171.97
2022-09-10T23:44:22.893Z,100171.97
2022-09-10T23:47:24.678Z,100165.81
2022-09-10T23:50:26.564Z,100167.56
2022-09-10T23:53:29.148Z,100167.50
2022-09-10T23:56:31.905Z,100169.22
2022-09-10T23:59:33.500Z,100165.56
